Terminal Aerodrome Forecast
Issued by NWS Charleston, SC

Home | Current Version | Previous Version | Text Only | Print | Product List | Glossary On
Versions: 1 2 3 4 5 6 7 8 9 10 11 12 13 14 15 16 17 18 19 20
000
FTUS42 KCHS 032100 AAA
TAFSAV
TAF AMD
KSAV 032100Z 0321/0418 27009KT P6SM FEW080 SCT250
     FM040100 22007KT P6SM SCT080
     FM041400 26010KT P6SM SCT060=

USA.gov is the U.S. government's official web portal to all federal, state and local government web resources and services.